createdAt,value
2022-10-23T00:01:15.581Z,5.60
2022-10-23T00:03:43.967Z,5.22
2022-10-23T00:06:15.161Z,2.83
2022-10-23T00:08:43.668Z,5.07
2022-10-23T00:11:15.545Z,3.83
2022-10-23T00:13:45.429Z,5.55
2022-10-23T00:16:13.924Z,5.70
2022-10-23T00:18:42.192Z,4.75
2022-10-23T00:21:11.476Z,2.80
2022-10-23T00:23:41.501Z,2.42
2022-10-23T00:26:15.063Z,5.10
2022-10-23T00:28:43.812Z,3.22
2022-10-23T00:31:13.982Z,2.00
2022-10-23T00:33:42.415Z,4.75
2022-10-23T00:36:11.886Z,3.83
2022-10-23T00:38:41.540Z,3.03
2022-10-23T00:41:10.413Z,3.95
2022-10-23T00:43:58.241Z,3.90
2022-10-23T00:46:29.290Z,4.93
2022-10-23T00:48:57.578Z,4.32
2022-10-23T00:51:26.159Z,4.68
2022-10-23T00:54:06.558Z,3.85
2022-10-23T00:56:41.835Z,4.47
2022-10-23T00:59:10.105Z,3.80
2022-10-23T01:01:42.235Z,2.95
2022-10-23T01:04:10.588Z,2.72
2022-10-23T01:06:42.467Z,3.13
2022-10-23T01:09:13.895Z,2.47
2022-10-23T01:11:45.458Z,3.00
2022-10-23T01:14:18.743Z,3.28
2022-10-23T01:16:49.763Z,2.05
2022-10-23T01:19:21.431Z,2.30
2022-10-23T01:21:55.144Z,2.83
2022-10-23T01:24:40.776Z,3.80
2022-10-23T01:27:20.238Z,3.08
2022-10-23T01:29:52.883Z,2.45
2022-10-23T01:32:24.878Z,3.28
2022-10-23T01:34:54.922Z,2.90
2022-10-23T01:37:25.514Z,3.78
2022-10-23T01:39:54.877Z,3.83
2022-10-23T01:42:26.522Z,2.60
2022-10-23T01:44:56.659Z,2.72
2022-10-23T01:47:29.989Z,3.05
2022-10-23T01:49:58.295Z,2.88
2022-10-23T01:52:26.571Z,2.70
2022-10-23T01:54:55.168Z,2.22
2022-10-23T01:57:27.658Z,3.38
2022-10-23T01:59:57.953Z,3.13
2022-10-23T02:02:26.270Z,2.90
2022-10-23T02:04:59.802Z,2.38
2022-10-23T02:07:28.077Z,6.63
2022-10-23T02:09:58.643Z,4.07
2022-10-23T02:12:32.916Z,3.50
2022-10-23T02:15:03.727Z,2.22
2022-10-23T02:17:40.566Z,2.17
2022-10-23T02:22:41.568Z,2.72
2022-10-23T02:25:14.306Z,2.58
2022-10-23T02:27:45.406Z,4.10
2022-10-23T02:30:14.790Z,2.47
2022-10-23T02:32:45.849Z,2.35
2022-10-23T02:35:17.390Z,2.85
2022-10-23T02:37:54.921Z,1.83
2022-10-23T02:40:23.803Z,3.55
2022-10-23T02:42:55.263Z,2.20
2022-10-23T02:45:25.803Z,3.35
2022-10-23T02:47:56.719Z,3.22
2022-10-23T02:50:30.389Z,2.80
2022-10-23T02:53:00.852Z,3.35
2022-10-23T02:55:35.837Z,4.55
2022-10-23T02:58:09.257Z,2.30
2022-10-23T03:00:38.762Z,6.60
2022-10-23T03:03:09.658Z,1.67
2022-10-23T03:05:49.391Z,4.32
2022-10-23T03:08:17.663Z,2.67
2022-10-23T03:10:46.043Z,2.33
2022-10-23T03:13:15.705Z,3.47
2022-10-23T03:15:44.046Z,2.00
2022-10-23T03:18:15.515Z,2.33
2022-10-23T03:20:43.766Z,1.83
2022-10-23T03:23:13.941Z,2.28
2022-10-23T03:25:45.321Z,2.45
2022-10-23T03:28:14.965Z,2.88
2022-10-23T03:30:43.224Z,2.47
2022-10-23T03:33:11.469Z,2.75
2022-10-23T03:35:39.810Z,3.10
2022-10-23T03:38:12.601Z,2.65
2022-10-23T03:40:40.851Z,2.97
2022-10-23T03:43:09.106Z,2.33
2022-10-23T03:45:43.423Z,3.03
2022-10-23T03:48:11.671Z,3.15
2022-10-23T03:50:39.975Z,7.85
2022-10-23T03:53:08.226Z,1.52
2022-10-23T03:55:36.493Z,7.38
2022-10-23T03:58:05.463Z,3.70
2022-10-23T04:00:33.761Z,2.60
2022-10-23T04:03:03.369Z,2.33
2022-10-23T04:05:31.658Z,2.63
2022-10-23T04:07:59.917Z,1.80
2022-10-23T04:10:28.212Z,2.72
2022-10-23T04:12:58.375Z,2.15
2022-10-23T04:15:26.703Z,3.83
2022-10-23T04:17:54.947Z,5.57
2022-10-23T04:20:24.548Z,1.90
2022-10-23T04:22:55.642Z,2.03
2022-10-23T04:25:26.091Z,1.83
2022-10-23T04:27:54.364Z,1.50
2022-10-23T04:30:24.943Z,2.92
2022-10-23T04:32:53.313Z,2.35
2022-10-23T04:35:21.576Z,2.58
2022-10-23T04:37:51.173Z,1.80
2022-10-23T04:40:19.442Z,1.70
2022-10-23T04:42:50.150Z,2.65
2022-10-23T04:45:18.446Z,1.45
2022-10-23T04:47:46.695Z,1.83
2022-10-23T04:50:14.967Z,2.33
2022-10-23T04:52:43.500Z,1.42
2022-10-23T04:55:13.361Z,2.95
2022-10-23T04:57:43.327Z,4.43
2022-10-23T05:00:14.197Z,3.40
2022-10-23T05:02:45.086Z,1.88
2022-10-23T05:05:15.730Z,2.25
2022-10-23T05:07:44.288Z,2.17
2022-10-23T05:10:14.102Z,2.28
2022-10-23T05:12:45.206Z,2.05
2022-10-23T05:15:18.705Z,1.73
2022-10-23T05:17:47.621Z,1.95
2022-10-23T05:20:18.247Z,3.78
2022-10-23T05:22:46.505Z,3.10
2022-10-23T05:25:16.143Z,2.70
2022-10-23T05:27:47.253Z,1.30
2022-10-23T05:30:15.522Z,2.38
2022-10-23T05:32:44.224Z,2.10
2022-10-23T05:35:17.732Z,1.50
2022-10-23T05:37:48.982Z,1.90
2022-10-23T05:40:18.661Z,2.25
2022-10-23T05:42:47.222Z,2.30
2022-10-23T05:45:15.853Z,2.35
2022-10-23T05:47:47.774Z,3.15
2022-10-23T05:50:16.182Z,3.97
2022-10-23T05:52:47.647Z,2.05
2022-10-23T05:55:17.831Z,4.50
2022-10-23T05:57:50.661Z,2.30
2022-10-23T06:00:19.008Z,1.65
2022-10-23T06:02:47.263Z,2.22
2022-10-23T06:05:17.983Z,2.20
2022-10-23T06:07:46.445Z,1.80
2022-10-23T06:10:14.890Z,1.58
2022-10-23T06:12:44.500Z,2.08
2022-10-23T06:15:15.555Z,2.55
2022-10-23T06:17:44.119Z,4.88
2022-10-23T06:20:12.826Z,1.60
2022-10-23T06:22:45.953Z,2.33
2022-10-23T06:25:14.533Z,1.92
2022-10-23T06:27:44.154Z,2.00
2022-10-23T06:30:13.605Z,2.83
2022-10-23T06:32:42.107Z,2.75
2022-10-23T06:35:12.347Z,2.55
2022-10-23T06:37:40.583Z,4.68
2022-10-23T06:40:10.042Z,2.83
2022-10-23T06:42:38.319Z,1.85
2022-10-23T06:45:08.955Z,1.80
2022-10-23T06:47:37.260Z,2.92
2022-10-23T06:50:06.214Z,1.40
2022-10-23T06:52:46.439Z,5.68
2022-10-23T06:55:15.682Z,2.13
2022-10-23T06:57:47.010Z,4.80
2022-10-23T07:00:17.122Z,3.13
2022-10-23T07:02:45.780Z,1.88
2022-10-23T07:05:14.112Z,2.20
2022-10-23T07:07:42.845Z,2.97
2022-10-23T07:12:41.933Z,2.17
2022-10-23T07:15:10.844Z,1.35
2022-10-23T07:17:45.191Z,1.50
2022-10-23T07:20:13.451Z,1.58
2022-10-23T07:22:42.053Z,1.95
2022-10-23T07:25:11.002Z,3.20
2022-10-23T07:27:39.448Z,2.55
2022-10-23T07:30:08.954Z,1.52
2022-10-23T07:32:37.242Z,1.80
2022-10-23T07:35:12.618Z,2.05
2022-10-23T07:37:41.208Z,2.35
2022-10-23T07:40:10.462Z,3.75
2022-10-23T07:42:39.110Z,0.98
2022-10-23T07:45:08.923Z,3.22
2022-10-23T07:47:40.601Z,6.82
2022-10-23T07:50:11.035Z,29.42
2022-10-23T07:52:39.340Z,15.48
2022-10-23T07:55:10.118Z,7.55
2022-10-23T07:57:39.164Z,8.20
2022-10-23T08:00:12.724Z,12.80
2022-10-23T08:02:41.222Z,12.13
2022-10-23T08:05:11.213Z,13.50
2022-10-23T08:07:40.619Z,10.98
2022-10-23T08:10:09.443Z,8.48
2022-10-23T08:12:38.561Z,5.93
2022-10-23T08:15:10.119Z,8.93
2022-10-23T08:17:39.157Z,7.78
2022-10-23T08:20:08.293Z,6.20
2022-10-23T08:22:38.936Z,12.18
2022-10-23T08:25:07.679Z,16.60
2022-10-23T08:27:35.918Z,29.10
2022-10-23T08:30:04.729Z,26.17
2022-10-23T08:32:33.117Z,30.70
2022-10-23T08:35:02.846Z,30.15
2022-10-23T08:37:33.563Z,31.45
2022-10-23T08:40:03.779Z,24.45
2022-10-23T08:42:32.211Z,19.00
2022-10-23T08:45:02.660Z,27.70
2022-10-23T08:47:34.131Z,18.58
2022-10-23T08:50:04.661Z,21.92
2022-10-23T08:52:35.123Z,21.73
2022-10-23T08:55:12.079Z,18.88
2022-10-23T08:57:44.223Z,19.23
2022-10-23T09:00:15.012Z,19.25
2022-10-23T09:02:46.876Z,20.90
2022-10-23T09:05:17.124Z,17.65
2022-10-23T09:07:55.581Z,24.00
2022-10-23T09:10:35.628Z,19.20
2022-10-23T09:13:21.333Z,15.20
2022-10-23T09:15:50.408Z,12.15
2022-10-23T09:18:18.823Z,11.55
2022-10-23T09:20:47.590Z,13.20
2022-10-23T09:23:20.708Z,12.43
2022-10-23T09:25:55.371Z,15.40
2022-10-23T09:28:24.688Z,9.65
2022-10-23T09:30:55.365Z,10.05
2022-10-23T09:33:24.700Z,8.90
2022-10-23T09:35:56.751Z,6.38
2022-10-23T09:38:28.535Z,10.40
2022-10-23T09:40:58.872Z,7.47
2022-10-23T09:43:27.646Z,9.82
2022-10-23T09:45:59.739Z,7.65
2022-10-23T09:48:31.040Z,9.52
2022-10-23T09:51:00.418Z,19.15
2022-10-23T09:53:35.712Z,7.15
2022-10-23T09:56:11.709Z,6.20
2022-10-23T09:58:43.847Z,9.68
2022-10-23T10:01:23.855Z,6.97
2022-10-23T10:03:52.367Z,6.63
2022-10-23T10:06:24.142Z,6.32
2022-10-23T10:08:55.595Z,5.70
2022-10-23T10:11:28.990Z,5.93
2022-10-23T10:14:11.480Z,6.13
2022-10-23T10:16:43.908Z,3.53
2022-10-23T10:19:34.023Z,4.60
2022-10-23T10:22:08.792Z,4.80
2022-10-23T10:24:40.068Z,5.25
2022-10-23T10:27:18.328Z,6.03
2022-10-23T10:29:53.852Z,7.28
2022-10-23T10:32:32.406Z,3.90
2022-10-23T10:35:07.627Z,3.60
2022-10-23T10:37:43.020Z,3.47
2022-10-23T10:40:17.504Z,6.68
2022-10-23T10:42:58.614Z,2.78
2022-10-23T10:45:28.366Z,4.65
2022-10-23T10:48:10.995Z,3.85
2022-10-23T10:50:44.604Z,3.47
2022-10-23T10:53:19.357Z,3.90
2022-10-23T10:55:49.456Z,4.57
2022-10-23T10:58:21.297Z,4.47
2022-10-23T11:00:51.309Z,4.82
2022-10-23T11:03:26.079Z,3.05
2022-10-23T11:05:54.391Z,3.65
2022-10-23T11:08:27.895Z,4.70
2022-10-23T11:11:02.946Z,4.47
2022-10-23T11:13:35.481Z,4.50
2022-10-23T11:16:06.747Z,2.63
2022-10-23T11:18:35.043Z,4.43
2022-10-23T11:21:15.210Z,3.38
2022-10-23T11:24:04.273Z,2.40
2022-10-23T11:26:46.728Z,2.53
2022-10-23T11:29:40.742Z,1.55
2022-10-23T11:32:23.776Z,1.65
2022-10-23T11:35:13.118Z,2.63
2022-10-23T11:37:44.326Z,3.00
2022-10-23T11:40:22.737Z,1.27
2022-10-23T11:42:51.178Z,1.98
2022-10-23T11:45:34.658Z,2.10
2022-10-23T11:48:03.682Z,2.10
2022-10-23T11:50:37.574Z,2.20
2022-10-23T11:53:14.764Z,2.15
2022-10-23T11:55:58.440Z,1.45
2022-10-23T11:58:31.669Z,2.25
2022-10-23T12:01:04.111Z,1.23
2022-10-23T12:03:44.982Z,6.32
2022-10-23T12:06:20.500Z,2.45
2022-10-23T12:08:58.267Z,3.25
2022-10-23T12:11:28.059Z,1.40
2022-10-23T12:13:56.360Z,1.52
2022-10-23T12:16:36.562Z,1.35
2022-10-23T12:19:19.304Z,3.38
2022-10-23T12:21:52.584Z,2.92
2022-10-23T12:24:39.421Z,3.22
2022-10-23T12:27:23.784Z,2.13
2022-10-23T12:30:01.398Z,2.25
2022-10-23T12:32:43.530Z,1.38
2022-10-23T12:35:25.522Z,2.10
2022-10-23T12:38:08.450Z,1.45
2022-10-23T12:40:36.722Z,1.73
2022-10-23T12:43:04.987Z,1.85
2022-10-23T12:45:33.944Z,1.00
2022-10-23T12:48:03.551Z,2.13
2022-10-23T12:50:32.713Z,1.48
2022-10-23T12:53:01.886Z,2.40
2022-10-23T12:55:33.630Z,1.95
2022-10-23T12:58:04.163Z,2.42
2022-10-23T13:00:35.397Z,1.75
2022-10-23T13:03:05.367Z,1.85
2022-10-23T13:05:36.141Z,1.70
2022-10-23T13:08:04.473Z,1.70
2022-10-23T13:10:33.262Z,2.95
2022-10-23T13:13:06.530Z,1.33
2022-10-23T13:15:38.928Z,1.55
2022-10-23T13:18:08.895Z,1.27
2022-10-23T13:20:38.596Z,1.90
2022-10-23T13:23:12.143Z,2.25
2022-10-23T13:25:40.499Z,1.33
2022-10-23T13:28:25.274Z,0.90
2022-10-23T13:31:24.625Z,1.42
2022-10-23T13:34:05.887Z,1.50
2022-10-23T13:36:37.468Z,0.95
2022-10-23T13:39:13.377Z,1.58
2022-10-23T13:41:42.627Z,1.58
2022-10-23T13:44:11.199Z,1.27
2022-10-23T13:46:39.538Z,1.00
2022-10-23T13:49:14.569Z,1.55
2022-10-23T13:51:44.102Z,1.17
2022-10-23T13:54:14.851Z,1.58
2022-10-23T13:56:43.191Z,1.05
2022-10-23T13:59:11.707Z,0.90
2022-10-23T14:01:42.105Z,1.08
2022-10-23T14:04:12.206Z,1.88
2022-10-23T14:06:40.494Z,1.15
2022-10-23T14:09:09.578Z,0.85
2022-10-23T14:11:37.835Z,1.45
2022-10-23T14:14:06.089Z,1.27
2022-10-23T14:16:34.358Z,1.42
2022-10-23T14:19:02.621Z,2.33
2022-10-23T14:21:32.290Z,1.30
2022-10-23T14:24:00.560Z,1.13
2022-10-23T14:26:30.204Z,0.60
2022-10-23T14:29:02.385Z,1.45
2022-10-23T14:31:35.197Z,0.80
2022-10-23T14:34:03.459Z,1.02
2022-10-23T14:36:43.181Z,0.90
2022-10-23T14:39:18.948Z,0.90
2022-10-23T14:41:47.230Z,1.65
2022-10-23T14:44:15.485Z,1.10
2022-10-23T14:46:43.746Z,2.33
2022-10-23T14:49:11.987Z,1.52
2022-10-23T14:51:41.579Z,1.00
2022-10-23T14:54:09.916Z,1.10
2022-10-23T14:56:40.468Z,1.50
2022-10-23T14:59:10.111Z,0.90
2022-10-23T15:01:43.592Z,1.08
2022-10-23T15:04:14.871Z,1.73
2022-10-23T15:06:45.035Z,2.10
2022-10-23T15:09:13.300Z,1.23
2022-10-23T15:11:41.669Z,1.30
2022-10-23T15:14:11.605Z,1.23
2022-10-23T15:16:42.025Z,0.93
2022-10-23T15:19:13.576Z,1.95
2022-10-23T15:21:49.447Z,1.55
2022-10-23T15:24:17.743Z,1.30
2022-10-23T15:26:46.014Z,1.55
2022-10-23T15:29:14.544Z,1.67
2022-10-23T15:31:47.383Z,0.85
2022-10-23T15:34:16.994Z,1.17
2022-10-23T15:36:46.892Z,0.80
2022-10-23T15:39:16.710Z,1.70
2022-10-23T15:41:46.890Z,1.10
2022-10-23T15:44:16.495Z,1.15
2022-10-23T15:46:44.847Z,1.25
2022-10-23T15:49:13.391Z,2.22
2022-10-23T15:51:46.172Z,1.27
2022-10-23T15:54:18.326Z,1.58
2022-10-23T15:56:46.885Z,0.98
2022-10-23T15:59:15.150Z,1.10
2022-10-23T16:01:43.543Z,1.05
2022-10-23T16:04:11.851Z,1.35
2022-10-23T16:06:40.113Z,1.25
2022-10-23T16:09:14.868Z,0.75
2022-10-23T16:11:43.743Z,1.05
2022-10-23T16:14:13.427Z,1.40
2022-10-23T16:16:41.753Z,2.63
2022-10-23T16:19:13.723Z,0.90
2022-10-23T16:21:42.576Z,0.88
2022-10-23T16:24:14.574Z,1.02
2022-10-23T16:26:44.419Z,1.23
2022-10-23T16:29:12.888Z,0.98
2022-10-23T16:31:41.162Z,1.33
2022-10-23T16:34:09.454Z,2.45
2022-10-23T16:36:39.046Z,1.05
2022-10-23T16:39:07.524Z,1.20
2022-10-23T16:41:37.193Z,0.90
2022-10-23T16:44:05.578Z,1.10
2022-10-23T16:46:46.162Z,1.10
2022-10-23T16:49:14.826Z,1.13
2022-10-23T16:51:43.098Z,0.57
2022-10-23T16:54:14.119Z,2.28
2022-10-23T16:56:45.647Z,1.55
2022-10-23T16:59:13.910Z,1.27
2022-10-23T17:01:42.269Z,0.93
2022-10-23T17:04:10.570Z,1.02
2022-10-23T17:06:38.835Z,1.15
2022-10-23T17:09:07.151Z,1.40
2022-10-23T17:11:36.337Z,1.85
2022-10-23T17:14:11.836Z,1.05
2022-10-23T17:16:41.212Z,1.15
2022-10-23T17:19:20.692Z,1.05
2022-10-23T17:21:56.879Z,1.20
2022-10-23T17:24:25.197Z,1.13
2022-10-23T17:26:53.986Z,1.30
2022-10-23T17:29:28.601Z,0.88
2022-10-23T17:31:56.872Z,3.33
2022-10-23T17:34:25.246Z,0.80
2022-10-23T17:36:54.220Z,0.80
2022-10-23T17:39:23.531Z,2.15
2022-10-23T17:41:51.964Z,1.17
2022-10-23T17:44:20.260Z,1.05
2022-10-23T17:46:53.718Z,0.93
2022-10-23T17:49:22.113Z,1.33
2022-10-23T17:51:52.023Z,2.55
2022-10-23T17:54:20.312Z,1.00
2022-10-23T17:56:53.305Z,2.20
2022-10-23T17:59:21.562Z,1.45
2022-10-23T18:01:50.120Z,1.40
2022-10-23T18:04:20.705Z,2.28
2022-10-23T18:06:53.005Z,0.80
2022-10-23T18:09:22.058Z,1.50
2022-10-23T18:11:50.684Z,1.20
2022-10-23T18:14:19.130Z,2.40
2022-10-23T18:16:50.569Z,0.70
2022-10-23T18:19:20.206Z,1.13
2022-10-23T18:21:49.818Z,1.10
2022-10-23T18:24:21.036Z,3.22
2022-10-23T18:26:49.331Z,1.48
2022-10-23T18:29:20.197Z,1.33
2022-10-23T18:31:55.647Z,1.60
2022-10-23T18:34:30.078Z,0.90
2022-10-23T18:37:01.547Z,3.80
2022-10-23T18:39:31.360Z,0.80
2022-10-23T18:41:59.709Z,1.25
2022-10-23T18:44:32.574Z,0.68
2022-10-23T18:47:00.950Z,2.03
2022-10-23T18:49:30.574Z,2.30
2022-10-23T18:52:01.677Z,3.35
2022-10-23T18:54:32.224Z,1.48
2022-10-23T18:57:01.535Z,2.58
2022-10-23T18:59:29.901Z,1.23
2022-10-23T19:01:59.887Z,2.08
2022-10-23T19:04:32.777Z,1.92
2022-10-23T19:07:03.839Z,1.48
2022-10-23T19:09:32.111Z,1.52
2022-10-23T19:12:02.330Z,3.28
2022-10-23T19:14:30.901Z,3.40
2022-10-23T19:17:00.275Z,1.58
2022-10-23T19:19:30.979Z,2.00
2022-10-23T19:21:59.254Z,1.88
2022-10-23T19:24:32.221Z,2.30
2022-10-23T19:27:00.669Z,2.55
2022-10-23T19:29:29.063Z,1.50
2022-10-23T19:31:59.543Z,1.88
2022-10-23T19:34:27.826Z,1.83
2022-10-23T19:36:57.467Z,2.72
2022-10-23T19:39:26.478Z,1.70
2022-10-23T19:41:55.149Z,2.25
2022-10-23T19:44:24.651Z,2.10
2022-10-23T19:46:52.905Z,1.52
2022-10-23T19:49:23.732Z,1.60
2022-10-23T19:51:52.055Z,3.05
2022-10-23T19:54:22.129Z,1.52
2022-10-23T19:56:50.554Z,2.20
2022-10-23T19:59:18.910Z,4.38
2022-10-23T20:01:48.998Z,2.42
2022-10-23T20:04:18.244Z,1.40
2022-10-23T20:06:46.695Z,1.98
2022-10-23T20:09:14.974Z,1.50
2022-10-23T20:11:46.346Z,1.65
2022-10-23T20:14:18.675Z,1.67
2022-10-23T20:16:55.555Z,1.13
2022-10-23T20:19:24.270Z,2.15
2022-10-23T20:21:52.578Z,1.48
2022-10-23T20:24:20.948Z,1.83
2022-10-23T20:26:51.325Z,2.35
2022-10-23T20:29:19.767Z,1.23
2022-10-23T20:31:48.088Z,1.42
2022-10-23T20:34:16.366Z,1.77
2022-10-23T20:36:46.726Z,1.50
2022-10-23T20:39:16.708Z,1.05
2022-10-23T20:41:45.082Z,1.33
2022-10-23T20:46:43.760Z,1.85
2022-10-23T20:49:12.707Z,4.75
2022-10-23T20:51:41.190Z,2.05
2022-10-23T20:54:09.490Z,4.18
2022-10-23T20:56:38.598Z,1.33
2022-10-23T20:59:07.842Z,3.40
2022-10-23T21:01:38.130Z,2.15
2022-10-23T21:04:06.454Z,1.50
2022-10-23T21:06:46.237Z,1.67
2022-10-23T21:09:23.008Z,1.92
2022-10-23T21:11:51.373Z,1.23
2022-10-23T21:14:19.685Z,1.20
2022-10-23T21:16:49.368Z,1.10
2022-10-23T21:19:17.646Z,1.27
2022-10-23T21:21:45.998Z,1.73
2022-10-23T21:24:18.203Z,1.02
2022-10-23T21:26:46.766Z,2.10
2022-10-23T21:29:19.334Z,2.85
2022-10-23T21:31:57.147Z,1.92
2022-10-23T21:34:25.503Z,1.10
2022-10-23T21:37:12.378Z,1.73
2022-10-23T21:39:42.052Z,4.30
2022-10-23T21:42:13.050Z,3.90
2022-10-23T21:44:42.565Z,1.50
2022-10-23T21:47:12.203Z,6.18
2022-10-23T21:49:40.465Z,3.45
2022-10-23T21:52:13.140Z,1.63
2022-10-23T21:54:46.165Z,2.10
2022-10-23T21:57:15.246Z,1.83
2022-10-23T21:59:43.484Z,6.28
2022-10-23T22:02:13.218Z,3.20
2022-10-23T22:04:41.544Z,1.85
2022-10-23T22:07:14.671Z,3.05
2022-10-23T22:09:43.185Z,3.17
2022-10-23T22:12:11.519Z,2.45
2022-10-23T22:14:40.056Z,1.35
2022-10-23T22:17:08.317Z,2.30
2022-10-23T22:19:37.891Z,1.17
2022-10-23T22:22:06.158Z,2.47
2022-10-23T22:24:34.429Z,1.40
2022-10-23T22:27:02.667Z,4.13
2022-10-23T22:29:31.033Z,1.92
2022-10-23T22:31:59.392Z,1.65
2022-10-23T22:37:18.416Z,1.27
2022-10-23T22:39:46.744Z,2.67
2022-10-23T22:42:14.981Z,0.77
2022-10-23T22:44:43.250Z,3.65
2022-10-23T22:47:11.507Z,1.77
2022-10-23T22:49:39.850Z,2.45
2022-10-23T22:52:08.092Z,1.30
2022-10-23T22:54:37.696Z,2.38
2022-10-23T22:57:05.969Z,1.05
2022-10-23T22:59:34.215Z,1.25
2022-10-23T23:02:08.187Z,1.15
2022-10-23T23:04:38.348Z,1.35
2022-10-23T23:07:07.913Z,1.30
2022-10-23T23:09:38.795Z,1.30
2022-10-23T23:12:07.463Z,1.08
2022-10-23T23:14:35.776Z,1.88
2022-10-23T23:17:04.048Z,1.17
2022-10-23T23:19:32.310Z,3.00
2022-10-23T23:22:00.709Z,0.73
2022-10-23T23:24:29.080Z,1.13
2022-10-23T23:26:58.673Z,0.88
2022-10-23T23:29:26.937Z,1.35
2022-10-23T23:31:55.187Z,1.77
2022-10-23T23:34:23.446Z,0.75
2022-10-23T23:36:51.675Z,1.10
2022-10-23T23:39:19.981Z,3.33
2022-10-23T23:41:48.238Z,0.98
2022-10-23T23:44:17.862Z,0.65
2022-10-23T23:46:46.104Z,1.48
2022-10-23T23:49:17.226Z,3.53
2022-10-23T23:51:45.482Z,2.30
2022-10-23T23:54:13.742Z,2.10
2022-10-23T23:56:41.994Z,2.45
2022-10-23T23:59:12.401Z,1.02
